sensor_id;sensor_type;location;lat;lon;timestamp;P1;durP1;ratioP1;P2;durP2;ratioP2
11823;SDS011;5969;50.780;7.726;2023-08-31T00:00:39;6.32;;;5.72;;
11823;SDS011;5969;50.780;7.726;2023-08-31T00:03:07;5.78;;;5.20;;
11823;SDS011;5969;50.780;7.726;2023-08-31T00:05:36;10.55;;;6.20;;
11823;SDS011;5969;50.780;7.726;2023-08-31T00:08:05;9.70;;;6.07;;
11823;SDS011;5969;50.780;7.726;2023-08-31T00:10:33;7.05;;;5.53;;
11823;SDS011;5969;50.780;7.726;2023-08-31T00:13:01;7.25;;;5.60;;
11823;SDS011;5969;50.780;7.726;2023-08-31T00:15:27;7.88;;;6.20;;
11823;SDS011;5969;50.780;7.726;2023-08-31T00:17:57;9.88;;;5.95;;
11823;SDS011;5969;50.780;7.726;2023-08-31T00:20:24;7.18;;;6.15;;
11823;SDS011;5969;50.780;7.726;2023-08-31T00:22:51;7.13;;;5.93;;
11823;SDS011;5969;50.780;7.726;2023-08-31T00:25:18;7.15;;;5.43;;
11823;SDS011;5969;50.780;7.726;2023-08-31T00:27:47;8.38;;;5.38;;
11823;SDS011;5969;50.780;7.726;2023-08-31T00:30:13;6.28;;;5.50;;
11823;SDS011;5969;50.780;7.726;2023-08-31T00:32:41;7.68;;;5.00;;
11823;SDS011;5969;50.780;7.726;2023-08-31T00:35:08;8.60;;;4.93;;
11823;SDS011;5969;50.780;7.726;2023-08-31T00:37:35;7.72;;;4.80;;
11823;SDS011;5969;50.780;7.726;2023-08-31T00:40:03;5.38;;;4.40;;
11823;SDS011;5969;50.780;7.726;2023-08-31T00:42:32;7.53;;;4.95;;
11823;SDS011;5969;50.780;7.726;2023-08-31T00:45:00;5.40;;;4.55;;
11823;SDS011;5969;50.780;7.726;2023-08-31T00:47:27;7.38;;;4.60;;
11823;SDS011;5969;50.780;7.726;2023-08-31T00:49:54;6.60;;;4.47;;
11823;SDS011;5969;50.780;7.726;2023-08-31T00:52:21;6.10;;;4.32;;
11823;SDS011;5969;50.780;7.726;2023-08-31T00:54:48;5.15;;;4.35;;
11823;SDS011;5969;50.780;7.726;2023-08-31T00:57:18;7.78;;;3.75;;
11823;SDS011;5969;50.780;7.726;2023-08-31T00:59:45;7.13;;;4.57;;
11823;SDS011;5969;50.780;7.726;2023-08-31T01:02:15;6.97;;;4.32;;
11823;SDS011;5969;50.780;7.726;2023-08-31T01:04:48;9.73;;;4.70;;
11823;SDS011;5969;50.780;7.726;2023-08-31T01:07:25;8.27;;;5.03;;
11823;SDS011;5969;50.780;7.726;2023-08-31T01:10:02;4.63;;;4.07;;
11823;SDS011;5969;50.780;7.726;2023-08-31T01:12:36;5.80;;;4.57;;
11823;SDS011;5969;50.780;7.726;2023-08-31T01:15:09;5.72;;;3.97;;
11823;SDS011;5969;50.780;7.726;2023-08-31T01:17:39;5.20;;;4.22;;
11823;SDS011;5969;50.780;7.726;2023-08-31T01:20:10;8.85;;;4.38;;
11823;SDS011;5969;50.780;7.726;2023-08-31T01:22:43;5.85;;;3.90;;
11823;SDS011;5969;50.780;7.726;2023-08-31T01:25:15;4.93;;;3.80;;
11823;SDS011;5969;50.780;7.726;2023-08-31T01:27:43;5.30;;;3.80;;
11823;SDS011;5969;50.780;7.726;2023-08-31T01:30:10;7.35;;;4.00;;
11823;SDS011;5969;50.780;7.726;2023-08-31T01:32:37;5.15;;;4.15;;
11823;SDS011;5969;50.780;7.726;2023-08-31T01:35:11;5.47;;;4.05;;
11823;SDS011;5969;50.780;7.726;2023-08-31T01:37:42;5.38;;;4.00;;
11823;SDS011;5969;50.780;7.726;2023-08-31T01:40:14;5.13;;;3.55;;
11823;SDS011;5969;50.780;7.726;2023-08-31T01:42:46;6.15;;;4.00;;
11823;SDS011;5969;50.780;7.726;2023-08-31T01:45:14;7.78;;;3.83;;
11823;SDS011;5969;50.780;7.726;2023-08-31T01:47:44;5.45;;;3.67;;
11823;SDS011;5969;50.780;7.726;2023-08-31T01:50:12;7.05;;;3.53;;
11823;SDS011;5969;50.780;7.726;2023-08-31T01:52:39;7.25;;;3.50;;
11823;SDS011;5969;50.780;7.726;2023-08-31T01:55:06;4.90;;;3.30;;
11823;SDS011;5969;50.780;7.726;2023-08-31T01:57:35;4.72;;;3.10;;
11823;SDS011;5969;50.780;7.726;2023-08-31T02:00:01;5.15;;;3.22;;
11823;SDS011;5969;50.780;7.726;2023-08-31T02:02:31;5.78;;;3.63;;
11823;SDS011;5969;50.780;7.726;2023-08-31T02:04:59;6.68;;;3.67;;
11823;SDS011;5969;50.780;7.726;2023-08-31T02:07:27;3.78;;;3.47;;
11823;SDS011;5969;50.780;7.726;2023-08-31T02:09:53;8.07;;;3.70;;
11823;SDS011;5969;50.780;7.726;2023-08-31T02:12:20;4.78;;;3.75;;
11823;SDS011;5969;50.780;7.726;2023-08-31T02:14:49;7.25;;;3.50;;
11823;SDS011;5969;50.780;7.726;2023-08-31T02:17:16;5.93;;;3.75;;
11823;SDS011;5969;50.780;7.726;2023-08-31T02:19:42;4.28;;;3.72;;
11823;SDS011;5969;50.780;7.726;2023-08-31T02:22:10;6.07;;;3.58;;
11823;SDS011;5969;50.780;7.726;2023-08-31T02:24:37;10.05;;;3.92;;
11823;SDS011;5969;50.780;7.726;2023-08-31T02:27:04;4.32;;;3.50;;
11823;SDS011;5969;50.780;7.726;2023-08-31T02:29:32;5.15;;;3.05;;
11823;SDS011;5969;50.780;7.726;2023-08-31T02:32:00;5.50;;;3.42;;
11823;SDS011;5969;50.780;7.726;2023-08-31T02:34:30;4.28;;;3.38;;
11823;SDS011;5969;50.780;7.726;2023-08-31T02:36:57;7.78;;;3.47;;
11823;SDS011;5969;50.780;7.726;2023-08-31T02:39:24;6.18;;;3.63;;
11823;SDS011;5969;50.780;7.726;2023-08-31T02:41:50;4.97;;;3.33;;
11823;SDS011;5969;50.780;7.726;2023-08-31T02:44:17;6.03;;;2.92;;
11823;SDS011;5969;50.780;7.726;2023-08-31T02:46:44;7.55;;;3.67;;
11823;SDS011;5969;50.780;7.726;2023-08-31T02:49:12;3.38;;;3.05;;
11823;SDS011;5969;50.780;7.726;2023-08-31T02:51:39;6.63;;;3.10;;
11823;SDS011;5969;50.780;7.726;2023-08-31T02:54:06;8.90;;;3.28;;
11823;SDS011;5969;50.780;7.726;2023-08-31T02:56:33;4.93;;;3.33;;
11823;SDS011;5969;50.780;7.726;2023-08-31T02:59:00;4.28;;;3.83;;
11823;SDS011;5969;50.780;7.726;2023-08-31T03:01:27;6.78;;;3.25;;
11823;SDS011;5969;50.780;7.726;2023-08-31T03:03:55;6.10;;;3.00;;
11823;SDS011;5969;50.780;7.726;2023-08-31T03:06:23;5.20;;;3.75;;
11823;SDS011;5969;50.780;7.726;2023-08-31T03:08:50;4.97;;;3.47;;
11823;SDS011;5969;50.780;7.726;2023-08-31T03:11:16;4.45;;;3.40;;
11823;SDS011;5969;50.780;7.726;2023-08-31T03:13:43;4.97;;;3.67;;
11823;SDS011;5969;50.780;7.726;2023-08-31T03:16:10;6.25;;;3.53;;
11823;SDS011;5969;50.780;7.726;2023-08-31T03:18:38;4.57;;;3.17;;
11823;SDS011;5969;50.780;7.726;2023-08-31T03:21:05;5.88;;;3.10;;
11823;SDS011;5969;50.780;7.726;2023-08-31T03:23:33;4.65;;;3.47;;
11823;SDS011;5969;50.780;7.726;2023-08-31T03:26:05;4.50;;;3.10;;
11823;SDS011;5969;50.780;7.726;2023-08-31T03:28:32;4.75;;;3.30;;
11823;SDS011;5969;50.780;7.726;2023-08-31T03:30:59;6.78;;;3.45;;
11823;SDS011;5969;50.780;7.726;2023-08-31T03:33:26;4.70;;;2.70;;
11823;SDS011;5969;50.780;7.726;2023-08-31T03:35:54;8.02;;;3.10;;
11823;SDS011;5969;50.780;7.726;2023-08-31T03:38:25;4.60;;;2.80;;
11823;SDS011;5969;50.780;7.726;2023-08-31T03:40:54;5.55;;;2.95;;
11823;SDS011;5969;50.780;7.726;2023-08-31T03:43:21;2.90;;;2.60;;
11823;SDS011;5969;50.780;7.726;2023-08-31T03:45:48;7.13;;;3.20;;
11823;SDS011;5969;50.780;7.726;2023-08-31T03:48:15;8.90;;;3.08;;
11823;SDS011;5969;50.780;7.726;2023-08-31T03:50:44;7.03;;;3.30;;
11823;SDS011;5969;50.780;7.726;2023-08-31T03:53:14;4.55;;;2.90;;
11823;SDS011;5969;50.780;7.726;2023-08-31T03:55:41;4.57;;;2.90;;
11823;SDS011;5969;50.780;7.726;2023-08-31T03:58:09;4.30;;;2.63;;
11823;SDS011;5969;50.780;7.726;2023-08-31T04:00:36;4.53;;;2.80;;
11823;SDS011;5969;50.780;7.726;2023-08-31T04:03:03;4.90;;;2.90;;
11823;SDS011;5969;50.780;7.726;2023-08-31T04:05:31;4.50;;;2.80;;
11823;SDS011;5969;50.780;7.726;2023-08-31T04:07:58;2.55;;;2.35;;
11823;SDS011;5969;50.780;7.726;2023-08-31T04:10:25;5.18;;;2.95;;
11823;SDS011;5969;50.780;7.726;2023-08-31T04:12:54;5.95;;;3.47;;
11823;SDS011;5969;50.780;7.726;2023-08-31T04:15:22;5.60;;;2.90;;
11823;SDS011;5969;50.780;7.726;2023-08-31T04:17:49;6.32;;;3.50;;
11823;SDS011;5969;50.780;7.726;2023-08-31T04:20:16;5.18;;;3.25;;
11823;SDS011;5969;50.780;7.726;2023-08-31T04:22:44;4.10;;;3.13;;
11823;SDS011;5969;50.780;7.726;2023-08-31T04:25:11;4.60;;;3.00;;
11823;SDS011;5969;50.780;7.726;2023-08-31T04:27:37;6.45;;;3.92;;
11823;SDS011;5969;50.780;7.726;2023-08-31T04:30:05;6.25;;;3.85;;
11823;SDS011;5969;50.780;7.726;2023-08-31T04:32:34;3.80;;;3.50;;
11823;SDS011;5969;50.780;7.726;2023-08-31T04:35:02;4.28;;;3.80;;
11823;SDS011;5969;50.780;7.726;2023-08-31T04:37:30;6.32;;;3.47;;
11823;SDS011;5969;50.780;7.726;2023-08-31T04:39:58;5.63;;;3.63;;
11823;SDS011;5969;50.780;7.726;2023-08-31T04:42:24;5.18;;;3.55;;
11823;SDS011;5969;50.780;7.726;2023-08-31T04:44:51;4.28;;;3.38;;
11823;SDS011;5969;50.780;7.726;2023-08-31T04:47:18;4.45;;;3.00;;
11823;SDS011;5969;50.780;7.726;2023-08-31T04:49:46;5.60;;;3.22;;
11823;SDS011;5969;50.780;7.726;2023-08-31T04:52:13;5.90;;;3.70;;
11823;SDS011;5969;50.780;7.726;2023-08-31T04:54:54;5.30;;;3.38;;
11823;SDS011;5969;50.780;7.726;2023-08-31T04:57:21;3.78;;;3.20;;
11823;SDS011;5969;50.780;7.726;2023-08-31T04:59:48;5.68;;;3.20;;
11823;SDS011;5969;50.780;7.726;2023-08-31T05:02:15;6.65;;;3.70;;
11823;SDS011;5969;50.780;7.726;2023-08-31T05:04:43;4.07;;;3.22;;
11823;SDS011;5969;50.780;7.726;2023-08-31T05:07:11;5.95;;;3.50;;
11823;SDS011;5969;50.780;7.726;2023-08-31T05:09:38;5.07;;;3.35;;
11823;SDS011;5969;50.780;7.726;2023-08-31T05:12:05;6.45;;;3.38;;
11823;SDS011;5969;50.780;7.726;2023-08-31T05:14:33;4.68;;;3.70;;
11823;SDS011;5969;50.780;7.726;2023-08-31T05:17:05;4.05;;;3.53;;
11823;SDS011;5969;50.780;7.726;2023-08-31T05:19:43;8.20;;;4.43;;
11823;SDS011;5969;50.780;7.726;2023-08-31T05:22:22;5.82;;;3.58;;
11823;SDS011;5969;50.780;7.726;2023-08-31T05:24:50;4.63;;;3.60;;
11823;SDS011;5969;50.780;7.726;2023-08-31T05:27:16;5.43;;;3.85;;
11823;SDS011;5969;50.780;7.726;2023-08-31T05:29:44;4.95;;;3.65;;
11823;SDS011;5969;50.780;7.726;2023-08-31T05:32:12;5.78;;;3.60;;
11823;SDS011;5969;50.780;7.726;2023-08-31T05:34:40;5.72;;;4.07;;
11823;SDS011;5969;50.780;7.726;2023-08-31T05:37:07;9.77;;;4.25;;
11823;SDS011;5969;50.780;7.726;2023-08-31T05:39:35;6.10;;;3.90;;
11823;SDS011;5969;50.780;7.726;2023-08-31T05:42:02;7.28;;;4.25;;
11823;SDS011;5969;50.780;7.726;2023-08-31T05:44:29;4.40;;;3.75;;
11823;SDS011;5969;50.780;7.726;2023-08-31T05:46:56;5.43;;;3.90;;
11823;SDS011;5969;50.780;7.726;2023-08-31T05:49:23;4.60;;;4.13;;
11823;SDS011;5969;50.780;7.726;2023-08-31T05:51:50;10.13;;;4.68;;
11823;SDS011;5969;50.780;7.726;2023-08-31T05:54:17;7.47;;;4.25;;
11823;SDS011;5969;50.780;7.726;2023-08-31T05:56:49;4.95;;;4.40;;
11823;SDS011;5969;50.780;7.726;2023-08-31T05:59:20;5.13;;;4.30;;
11823;SDS011;5969;50.780;7.726;2023-08-31T06:01:47;6.78;;;4.55;;
11823;SDS011;5969;50.780;7.726;2023-08-31T06:04:14;4.38;;;3.85;;
11823;SDS011;5969;50.780;7.726;2023-08-31T06:06:40;4.38;;;3.50;;
11823;SDS011;5969;50.780;7.726;2023-08-31T06:09:07;5.82;;;4.25;;
11823;SDS011;5969;50.780;7.726;2023-08-31T06:11:36;4.70;;;3.83;;
11823;SDS011;5969;50.780;7.726;2023-08-31T06:14:05;4.40;;;3.90;;
11823;SDS011;5969;50.780;7.726;2023-08-31T06:16:32;6.82;;;4.38;;
11823;SDS011;5969;50.780;7.726;2023-08-31T06:18:59;5.00;;;4.18;;
11823;SDS011;5969;50.780;7.726;2023-08-31T06:21:25;5.45;;;3.78;;
11823;SDS011;5969;50.780;7.726;2023-08-31T06:23:52;6.03;;;3.72;;
11823;SDS011;5969;50.780;7.726;2023-08-31T06:26:19;5.70;;;3.95;;
11823;SDS011;5969;50.780;7.726;2023-08-31T06:28:46;5.28;;;3.55;;
11823;SDS011;5969;50.780;7.726;2023-08-31T06:31:14;4.00;;;3.60;;
11823;SDS011;5969;50.780;7.726;2023-08-31T06:33:40;5.75;;;4.20;;
11823;SDS011;5969;50.780;7.726;2023-08-31T06:36:07;4.15;;;3.80;;
11823;SDS011;5969;50.780;7.726;2023-08-31T06:38:34;7.40;;;4.63;;
11823;SDS011;5969;50.780;7.726;2023-08-31T06:41:01;4.80;;;4.20;;
11823;SDS011;5969;50.780;7.726;2023-08-31T06:43:29;6.78;;;4.25;;
11823;SDS011;5969;50.780;7.726;2023-08-31T06:45:55;5.43;;;3.10;;
11823;SDS011;5969;50.780;7.726;2023-08-31T06:48:24;6.85;;;4.18;;
11823;SDS011;5969;50.780;7.726;2023-08-31T06:50:51;6.78;;;3.95;;
11823;SDS011;5969;50.780;7.726;2023-08-31T06:53:18;5.15;;;3.65;;
11823;SDS011;5969;50.780;7.726;2023-08-31T06:55:44;5.45;;;3.58;;
11823;SDS011;5969;50.780;7.726;2023-08-31T06:58:11;5.70;;;3.50;;
11823;SDS011;5969;50.780;7.726;2023-08-31T07:00:38;4.03;;;3.28;;
11823;SDS011;5969;50.780;7.726;2023-08-31T07:03:05;4.13;;;2.97;;
11823;SDS011;5969;50.780;7.726;2023-08-31T07:05:34;4.47;;;3.40;;
11823;SDS011;5969;50.780;7.726;2023-08-31T07:08:07;4.68;;;3.20;;
11823;SDS011;5969;50.780;7.726;2023-08-31T07:10:34;6.35;;;3.45;;
11823;SDS011;5969;50.780;7.726;2023-08-31T07:13:01;7.90;;;3.33;;
11823;SDS011;5969;50.780;7.726;2023-08-31T07:15:28;5.72;;;3.35;;
11823;SDS011;5969;50.780;7.726;2023-08-31T07:17:55;7.15;;;3.30;;
11823;SDS011;5969;50.780;7.726;2023-08-31T07:20:22;4.68;;;3.15;;
11823;SDS011;5969;50.780;7.726;2023-08-31T07:22:50;3.45;;;2.88;;
11823;SDS011;5969;50.780;7.726;2023-08-31T07:25:17;4.55;;;2.90;;
11823;SDS011;5969;50.780;7.726;2023-08-31T07:27:44;3.45;;;2.70;;
11823;SDS011;5969;50.780;7.726;2023-08-31T07:30:11;5.22;;;2.80;;
11823;SDS011;5969;50.780;7.726;2023-08-31T07:32:38;5.22;;;2.97;;
11823;SDS011;5969;50.780;7.726;2023-08-31T07:35:05;5.93;;;3.45;;
11823;SDS011;5969;50.780;7.726;2023-08-31T07:37:32;4.88;;;2.72;;
11823;SDS011;5969;50.780;7.726;2023-08-31T07:40:01;5.18;;;2.78;;
11823;SDS011;5969;50.780;7.726;2023-08-31T07:42:29;6.43;;;3.25;;
11823;SDS011;5969;50.780;7.726;2023-08-31T07:44:55;3.30;;;2.65;;
11823;SDS011;5969;50.780;7.726;2023-08-31T07:47:22;5.38;;;3.00;;
11823;SDS011;5969;50.780;7.726;2023-08-31T07:49:49;6.32;;;2.75;;
11823;SDS011;5969;50.780;7.726;2023-08-31T07:52:16;4.22;;;3.30;;
11823;SDS011;5969;50.780;7.726;2023-08-31T07:54:42;4.15;;;2.92;;
11823;SDS011;5969;50.780;7.726;2023-08-31T07:57:11;3.58;;;2.60;;
11823;SDS011;5969;50.780;7.726;2023-08-31T07:59:38;3.22;;;2.63;;
11823;SDS011;5969;50.780;7.726;2023-08-31T08:02:05;3.70;;;2.58;;
11823;SDS011;5969;50.780;7.726;2023-08-31T08:04:32;4.10;;;2.80;;
11823;SDS011;5969;50.780;7.726;2023-08-31T08:06:58;3.15;;;2.80;;
11823;SDS011;5969;50.780;7.726;2023-08-31T08:09:25;4.22;;;2.58;;
11823;SDS011;5969;50.780;7.726;2023-08-31T08:11:52;7.28;;;2.78;;
11823;SDS011;5969;50.780;7.726;2023-08-31T08:14:20;3.40;;;2.45;;
11823;SDS011;5969;50.780;7.726;2023-08-31T08:16:47;4.43;;;2.70;;
11823;SDS011;5969;50.780;7.726;2023-08-31T08:19:14;2.90;;;2.33;;
11823;SDS011;5969;50.780;7.726;2023-08-31T08:21:47;3.95;;;2.20;;
11823;SDS011;5969;50.780;7.726;2023-08-31T08:24:14;3.70;;;2.60;;
11823;SDS011;5969;50.780;7.726;2023-08-31T08:26:40;3.28;;;2.38;;
11823;SDS011;5969;50.780;7.726;2023-08-31T08:29:07;4.13;;;2.50;;
11823;SDS011;5969;50.780;7.726;2023-08-31T08:31:35;4.25;;;2.28;;
11823;SDS011;5969;50.780;7.726;2023-08-31T08:34:02;4.80;;;2.45;;
11823;SDS011;5969;50.780;7.726;2023-08-31T08:36:29;4.55;;;2.15;;
11823;SDS011;5969;50.780;7.726;2023-08-31T08:38:56;5.60;;;2.45;;
11823;SDS011;5969;50.780;7.726;2023-08-31T08:41:23;4.57;;;2.13;;
11823;SDS011;5969;50.780;7.726;2023-08-31T08:43:50;5.30;;;2.30;;
11823;SDS011;5969;50.780;7.726;2023-08-31T08:46:21;7.25;;;2.47;;
11823;SDS011;5969;50.780;7.726;2023-08-31T08:48:50;5.15;;;2.10;;
11823;SDS011;5969;50.780;7.726;2023-08-31T08:51:17;5.40;;;2.50;;
11823;SDS011;5969;50.780;7.726;2023-08-31T08:53:44;3.30;;;2.03;;
11823;SDS011;5969;50.780;7.726;2023-08-31T08:56:13;3.22;;;1.98;;
11823;SDS011;5969;50.780;7.726;2023-08-31T08:58:40;5.05;;;2.05;;
11823;SDS011;5969;50.780;7.726;2023-08-31T09:01:07;4.53;;;2.00;;
11823;SDS011;5969;50.780;7.726;2023-08-31T09:03:34;2.40;;;1.75;;
11823;SDS011;5969;50.780;7.726;2023-08-31T09:06:02;2.92;;;1.70;;
11823;SDS011;5969;50.780;7.726;2023-08-31T09:08:33;5.20;;;1.60;;
11823;SDS011;5969;50.780;7.726;2023-08-31T09:11:02;4.53;;;1.80;;
11823;SDS011;5969;50.780;7.726;2023-08-31T09:13:29;3.70;;;1.98;;
11823;SDS011;5969;50.780;7.726;2023-08-31T09:15:56;4.25;;;2.08;;
11823;SDS011;5969;50.780;7.726;2023-08-31T09:18:24;6.63;;;2.17;;
11823;SDS011;5969;50.780;7.726;2023-08-31T09:20:51;3.92;;;1.60;;
11823;SDS011;5969;50.780;7.726;2023-08-31T09:23:20;2.40;;;1.80;;
11823;SDS011;5969;50.780;7.726;2023-08-31T09:25:48;3.40;;;1.77;;
11823;SDS011;5969;50.780;7.726;2023-08-31T09:28:18;3.40;;;1.77;;
11823;SDS011;5969;50.780;7.726;2023-08-31T09:30:47;3.50;;;1.75;;
11823;SDS011;5969;50.780;7.726;2023-08-31T09:33:15;2.70;;;1.65;;
11823;SDS011;5969;50.780;7.726;2023-08-31T09:35:47;2.65;;;1.70;;
11823;SDS011;5969;50.780;7.726;2023-08-31T09:38:15;6.00;;;1.90;;
11823;SDS011;5969;50.780;7.726;2023-08-31T09:40:44;3.35;;;1.70;;
11823;SDS011;5969;50.780;7.726;2023-08-31T09:43:11;4.72;;;1.65;;
11823;SDS011;5969;50.780;7.726;2023-08-31T09:45:38;3.78;;;1.60;;
11823;SDS011;5969;50.780;7.726;2023-08-31T09:48:05;3.58;;;1.67;;
11823;SDS011;5969;50.780;7.726;2023-08-31T09:50:33;2.88;;;1.40;;
11823;SDS011;5969;50.780;7.726;2023-08-31T09:53:04;3.47;;;1.35;;
11823;SDS011;5969;50.780;7.726;2023-08-31T09:55:33;2.97;;;1.30;;
11823;SDS011;5969;50.780;7.726;2023-08-31T09:58:03;3.10;;;1.45;;
11823;SDS011;5969;50.780;7.726;2023-08-31T10:00:32;1.60;;;1.50;;
11823;SDS011;5969;50.780;7.726;2023-08-31T10:03:02;4.60;;;1.88;;
11823;SDS011;5969;50.780;7.726;2023-08-31T10:05:31;2.78;;;1.40;;
11823;SDS011;5969;50.780;7.726;2023-08-31T10:07:58;4.00;;;1.70;;
11823;SDS011;5969;50.780;7.726;2023-08-31T10:10:25;3.92;;;1.60;;
11823;SDS011;5969;50.780;7.726;2023-08-31T10:12:54;1.70;;;1.45;;
11823;SDS011;5969;50.780;7.726;2023-08-31T10:15:23;3.80;;;1.67;;
11823;SDS011;5969;50.780;7.726;2023-08-31T10:17:57;2.75;;;1.60;;
11823;SDS011;5969;50.780;7.726;2023-08-31T10:20:25;1.85;;;1.48;;
11823;SDS011;5969;50.780;7.726;2023-08-31T10:22:56;3.28;;;1.58;;
11823;SDS011;5969;50.780;7.726;2023-08-31T10:25:23;3.13;;;1.42;;
11823;SDS011;5969;50.780;7.726;2023-08-31T10:27:51;4.03;;;1.60;;
11823;SDS011;5969;50.780;7.726;2023-08-31T10:30:26;2.92;;;1.27;;
11823;SDS011;5969;50.780;7.726;2023-08-31T10:35:52;2.00;;;1.30;;
11823;SDS011;5969;50.780;7.726;2023-08-31T10:38:25;2.17;;;1.40;;
11823;SDS011;5969;50.780;7.726;2023-08-31T10:41:03;2.63;;;1.50;;
11823;SDS011;5969;50.780;7.726;2023-08-31T10:43:47;2.72;;;1.50;;
11823;SDS011;5969;50.780;7.726;2023-08-31T10:46:24;2.33;;;1.40;;
11823;SDS011;5969;50.780;7.726;2023-08-31T10:48:53;2.75;;;1.50;;
11823;SDS011;5969;50.780;7.726;2023-08-31T10:51:24;2.22;;;1.40;;
11823;SDS011;5969;50.780;7.726;2023-08-31T10:53:52;2.60;;;1.48;;
11823;SDS011;5969;50.780;7.726;2023-08-31T10:56:30;2.78;;;1.50;;
11823;SDS011;5969;50.780;7.726;2023-08-31T10:59:00;2.45;;;1.48;;
11823;SDS011;5969;50.780;7.726;2023-08-31T11:04:19;1.95;;;1.23;;
11823;SDS011;5969;50.780;7.726;2023-08-31T11:06:46;2.58;;;1.30;;
11823;SDS011;5969;50.780;7.726;2023-08-31T11:09:17;3.15;;;1.40;;
11823;SDS011;5969;50.780;7.726;2023-08-31T11:11:45;2.08;;;1.40;;
11823;SDS011;5969;50.780;7.726;2023-08-31T11:14:12;2.67;;;1.58;;
11823;SDS011;5969;50.780;7.726;2023-08-31T11:16:39;1.55;;;1.35;;
11823;SDS011;5969;50.780;7.726;2023-08-31T11:19:07;2.75;;;1.40;;
11823;SDS011;5969;50.780;7.726;2023-08-31T11:21:35;3.85;;;1.50;;
11823;SDS011;5969;50.780;7.726;2023-08-31T11:24:03;1.85;;;1.35;;
11823;SDS011;5969;50.780;7.726;2023-08-31T11:26:31;3.75;;;1.55;;
11823;SDS011;5969;50.780;7.726;2023-08-31T11:28:58;1.90;;;1.25;;
11823;SDS011;5969;50.780;7.726;2023-08-31T11:31:25;2.00;;;1.20;;
11823;SDS011;5969;50.780;7.726;2023-08-31T11:33:52;2.42;;;1.50;;
11823;SDS011;5969;50.780;7.726;2023-08-31T11:36:22;2.42;;;1.52;;
11823;SDS011;5969;50.780;7.726;2023-08-31T11:38:50;2.17;;;1.75;;
11823;SDS011;5969;50.780;7.726;2023-08-31T11:41:18;3.28;;;1.73;;
11823;SDS011;5969;50.780;7.726;2023-08-31T11:43:45;2.65;;;1.50;;
11823;SDS011;5969;50.780;7.726;2023-08-31T11:46:13;2.85;;;1.40;;
11823;SDS011;5969;50.780;7.726;2023-08-31T11:48:40;2.08;;;1.23;;
11823;SDS011;5969;50.780;7.726;2023-08-31T11:51:07;2.85;;;1.60;;
11823;SDS011;5969;50.780;7.726;2023-08-31T11:53:36;3.17;;;1.48;;
11823;SDS011;5969;50.780;7.726;2023-08-31T11:56:03;3.15;;;1.50;;
11823;SDS011;5969;50.780;7.726;2023-08-31T11:58:31;2.53;;;1.50;;
11823;SDS011;5969;50.780;7.726;2023-08-31T12:00:57;2.53;;;1.15;;
11823;SDS011;5969;50.780;7.726;2023-08-31T12:03:25;2.08;;;1.25;;
11823;SDS011;5969;50.780;7.726;2023-08-31T12:05:54;1.83;;;1.20;;
11823;SDS011;5969;50.780;7.726;2023-08-31T12:08:23;3.45;;;1.60;;
11823;SDS011;5969;50.780;7.726;2023-08-31T12:10:53;1.67;;;1.35;;
11823;SDS011;5969;50.780;7.726;2023-08-31T12:13:21;1.70;;;1.30;;
11823;SDS011;5969;50.780;7.726;2023-08-31T12:15:52;2.47;;;1.20;;
11823;SDS011;5969;50.780;7.726;2023-08-31T12:18:19;1.88;;;1.00;;
11823;SDS011;5969;50.780;7.726;2023-08-31T12:20:46;1.55;;;1.00;;
11823;SDS011;5969;50.780;7.726;2023-08-31T12:25:59;2.60;;;1.38;;
11823;SDS011;5969;50.780;7.726;2023-08-31T12:28:37;2.85;;;1.20;;
11823;SDS011;5969;50.780;7.726;2023-08-31T12:31:36;2.42;;;1.30;;
11823;SDS011;5969;50.780;7.726;2023-08-31T12:34:06;2.65;;;1.30;;
11823;SDS011;5969;50.780;7.726;2023-08-31T12:36:33;1.90;;;1.40;;
11823;SDS011;5969;50.780;7.726;2023-08-31T12:39:02;2.40;;;1.38;;
11823;SDS011;5969;50.780;7.726;2023-08-31T12:41:33;2.53;;;1.38;;
11823;SDS011;5969;50.780;7.726;2023-08-31T12:43:59;2.95;;;1.63;;
11823;SDS011;5969;50.780;7.726;2023-08-31T12:46:28;3.17;;;1.30;;
11823;SDS011;5969;50.780;7.726;2023-08-31T12:48:54;3.67;;;1.40;;
11823;SDS011;5969;50.780;7.726;2023-08-31T12:51:22;3.10;;;1.73;;
11823;SDS011;5969;50.780;7.726;2023-08-31T12:56:40;4.50;;;1.30;;
11823;SDS011;5969;50.780;7.726;2023-08-31T12:59:19;3.28;;;1.75;;
11823;SDS011;5969;50.780;7.726;2023-08-31T13:02:18;3.50;;;1.60;;
11823;SDS011;5969;50.780;7.726;2023-08-31T13:04:45;4.28;;;1.80;;
11823;SDS011;5969;50.780;7.726;2023-08-31T13:07:12;2.58;;;1.88;;
11823;SDS011;5969;50.780;7.726;2023-08-31T13:09:39;4.25;;;1.50;;
11823;SDS011;5969;50.780;7.726;2023-08-31T13:12:07;2.60;;;1.70;;
11823;SDS011;5969;50.780;7.726;2023-08-31T13:14:34;2.08;;;1.60;;
11823;SDS011;5969;50.780;7.726;2023-08-31T13:17:01;2.45;;;1.50;;
11823;SDS011;5969;50.780;7.726;2023-08-31T13:19:28;3.22;;;1.58;;
11823;SDS011;5969;50.780;7.726;2023-08-31T13:21:55;4.00;;;1.67;;
11823;SDS011;5969;50.780;7.726;2023-08-31T13:24:22;1.75;;;1.58;;
11823;SDS011;5969;50.780;7.726;2023-08-31T13:26:49;2.95;;;1.27;;
11823;SDS011;5969;50.780;7.726;2023-08-31T13:29:17;2.03;;;1.35;;
11823;SDS011;5969;50.780;7.726;2023-08-31T13:31:45;2.83;;;1.67;;
11823;SDS011;5969;50.780;7.726;2023-08-31T13:34:12;3.50;;;1.45;;
11823;SDS011;5969;50.780;7.726;2023-08-31T13:36:40;2.53;;;1.75;;
11823;SDS011;5969;50.780;7.726;2023-08-31T13:39:07;1.55;;;1.17;;
11823;SDS011;5969;50.780;7.726;2023-08-31T13:44:21;1.48;;;1.38;;
11823;SDS011;5969;50.780;7.726;2023-08-31T13:46:48;2.03;;;1.33;;
11823;SDS011;5969;50.780;7.726;2023-08-31T13:49:15;1.58;;;1.33;;
11823;SDS011;5969;50.780;7.726;2023-08-31T13:51:42;2.17;;;1.30;;
11823;SDS011;5969;50.780;7.726;2023-08-31T13:54:10;1.75;;;1.20;;
11823;SDS011;5969;50.780;7.726;2023-08-31T13:56:37;2.25;;;1.33;;
11823;SDS011;5969;50.780;7.726;2023-08-31T13:59:08;1.50;;;1.20;;
11823;SDS011;5969;50.780;7.726;2023-08-31T14:01:44;2.40;;;1.35;;
11823;SDS011;5969;50.780;7.726;2023-08-31T14:04:11;1.45;;;1.20;;
11823;SDS011;5969;50.780;7.726;2023-08-31T14:06:39;1.67;;;1.25;;
11823;SDS011;5969;50.780;7.726;2023-08-31T14:09:06;2.38;;;1.25;;
11823;SDS011;5969;50.780;7.726;2023-08-31T14:11:34;2.78;;;1.40;;
11823;SDS011;5969;50.780;7.726;2023-08-31T14:14:04;1.55;;;1.20;;
11823;SDS011;5969;50.780;7.726;2023-08-31T14:16:36;2.15;;;1.40;;
11823;SDS011;5969;50.780;7.726;2023-08-31T14:19:04;1.80;;;1.27;;
11823;SDS011;5969;50.780;7.726;2023-08-31T14:21:32;3.58;;;1.50;;
11823;SDS011;5969;50.780;7.726;2023-08-31T14:23:58;3.22;;;1.45;;
11823;SDS011;5969;50.780;7.726;2023-08-31T14:26:25;1.38;;;1.27;;
11823;SDS011;5969;50.780;7.726;2023-08-31T14:28:52;3.47;;;1.50;;
11823;SDS011;5969;50.780;7.726;2023-08-31T14:31:19;2.28;;;1.50;;
11823;SDS011;5969;50.780;7.726;2023-08-31T14:33:47;2.65;;;1.58;;
11823;SDS011;5969;50.780;7.726;2023-08-31T14:36:18;4.35;;;1.55;;
11823;SDS011;5969;50.780;7.726;2023-08-31T14:38:44;2.92;;;1.48;;
11823;SDS011;5969;50.780;7.726;2023-08-31T14:41:11;3.42;;;1.75;;
11823;SDS011;5969;50.780;7.726;2023-08-31T14:43:38;1.92;;;1.23;;
11823;SDS011;5969;50.780;7.726;2023-08-31T14:46:05;2.03;;;1.38;;
11823;SDS011;5969;50.780;7.726;2023-08-31T14:48:32;5.90;;;1.70;;
11823;SDS011;5969;50.780;7.726;2023-08-31T14:50:57;2.28;;;1.40;;
11823;SDS011;5969;50.780;7.726;2023-08-31T14:53:27;1.52;;;1.40;;
11823;SDS011;5969;50.780;7.726;2023-08-31T14:55:54;2.42;;;1.30;;
11823;SDS011;5969;50.780;7.726;2023-08-31T14:58:21;3.47;;;1.65;;
11823;SDS011;5969;50.780;7.726;2023-08-31T15:00:48;4.30;;;1.90;;
11823;SDS011;5969;50.780;7.726;2023-08-31T15:03:14;2.55;;;1.42;;
11823;SDS011;5969;50.780;7.726;2023-08-31T15:05:41;1.60;;;1.25;;
11823;SDS011;5969;50.780;7.726;2023-08-31T15:08:08;2.17;;;1.45;;
11823;SDS011;5969;50.780;7.726;2023-08-31T15:10:37;2.47;;;1.50;;
11823;SDS011;5969;50.780;7.726;2023-08-31T15:13:04;3.30;;;1.90;;
11823;SDS011;5969;50.780;7.726;2023-08-31T15:15:32;2.63;;;1.50;;
11823;SDS011;5969;50.780;7.726;2023-08-31T15:17:59;1.95;;;1.40;;
11823;SDS011;5969;50.780;7.726;2023-08-31T15:20:26;3.60;;;1.60;;